Time;durP1;ratioP1;P1;durP2;ratioP2;P2;SDS_P1;SDS_P2;PMS_P1;PMS_P2;Temp;Humidity;BMP_temperature;BMP_pressure;BME280_temperature;BME280_humidity;BME280_pressure;Samples;Min_cycle;Max_cycle;Signal;HPM_P1;HPM_P2
2022/02/11 00:07:10;;;;;;;18.77;9.70;;;12.00;51.60;;;;;;5025063;28;20022;-56
2022/02/11 00:09:36;;;;;;;17.85;9.27;;;12.00;51.70;;;;;;5017479;28;20089;-52
2022/02/11 00:12:03;;;;;;;18.55;9.52;;;11.90;52.00;;;;;;5004955;28;20028;-52
2022/02/11 00:14:32;;;;;;;20.30;9.98;;;11.80;52.30;;;;;;5022012;28;20208;-58
2022/02/11 00:16:58;;;;;;;18.50;9.07;;;11.70;52.50;;;;;;5007298;28;20057;-57
2022/02/11 00:19:24;;;;;;;16.92;9.02;;;11.60;52.70;;;;;;5004262;28;20507;-55
2022/02/11 00:21:50;;;;;;;19.40;8.52;;;11.60;52.80;;;;;;5023062;28;20029;-48
2022/02/11 00:24:17;;;;;;;13.73;8.90;;;11.60;52.90;;;;;;5005907;28;20500;-56
2022/02/11 00:26:50;;;;;;;17.27;8.40;;;11.60;52.90;;;;;;5007469;28;20044;-53
2022/02/11 00:34:13;;;;;;;17.10;8.57;;;11.70;52.60;;;;;;5009766;28;20026;-50
2022/02/11 00:36:50;;;;;;;18.58;8.63;;;11.70;52.50;;;;;;5018264;28;20034;-52
2022/02/11 01:06:03;;;;;;;12.27;7.60;;;11.90;52.10;;;;;;5009821;28;20038;-50
2022/02/11 01:08:29;;;;;;;15.70;8.25;;;11.90;52.10;;;;;;4993127;28;20079;-55
2022/02/11 01:10:58;;;;;;;20.20;8.13;;;11.90;52.10;;;;;;5012144;28;20047;-55
2022/02/11 01:13:23;;;;;;;16.08;8.45;;;11.90;52.20;;;;;;5013026;28;20030;-54
2022/02/11 01:15:56;;;;;;;12.73;7.82;;;11.90;52.20;;;;;;5023955;28;20129;-53
2022/02/11 01:18:22;;;;;;;15.82;8.35;;;11.90;52.50;;;;;;4985185;28;20040;-55
2022/02/11 01:20:54;;;;;;;15.10;7.93;;;11.80;52.60;;;;;;5002269;28;20473;-55
2022/02/11 01:57:15;;;;;;;14.20;8.35;;;11.60;54.00;;;;;;5012591;28;20493;-65
2022/02/11 02:03:25;;;;;;;12.93;8.38;;;11.50;54.10;;;;;;5011678;28;20444;-66
2022/02/11 02:21:39;;;;;;;15.25;9.15;;;11.10;56.00;;;;;;5012147;28;19960;-65
2022/02/11 02:37:37;;;;;;;20.45;11.00;;;10.90;56.70;;;;;;4932107;29;20024;-66
2022/02/11 03:34:58;;;;;;;16.85;10.55;;;10.40;59.10;;;;;;5014422;28;20243;-66
2022/02/11 04:55:25;;;;;;;15.70;9.48;;;10.60;59.70;;;;;;5013168;28;19932;-66
2022/02/11 05:00:39;;;;;;;16.13;9.55;;;10.60;59.40;;;;;;5012654;28;20033;-66
2022/02/11 05:03:06;;;;;;;16.85;9.98;;;10.60;59.50;;;;;;4979695;28;20084;-66
2022/02/11 05:05:51;;;;;;;19.60;9.77;;;10.60;59.60;;;;;;5012821;28;20030;-66
2022/02/11 05:08:21;;;;;;;19.30;9.45;;;10.60;59.60;;;;;;5013259;28;20045;-66
2022/02/11 05:10:48;;;;;;;21.48;10.43;;;10.60;59.60;;;;;;4995143;28;20030;-66
2022/02/11 05:13:15;;;;;;;17.13;9.07;;;10.60;59.50;;;;;;4995419;28;20022;-65
2022/02/11 05:15:41;;;;;;;16.85;9.30;;;10.60;59.40;;;;;;4995203;28;20040;-66
2022/02/11 05:18:07;;;;;;;17.58;9.65;;;10.60;59.30;;;;;;5013011;28;20101;-66
2022/02/11 05:20:33;;;;;;;16.27;9.35;;;10.60;59.30;;;;;;5012562;28;20036;-66
2022/02/11 05:23:07;;;;;;;15.10;9.27;;;10.60;59.40;;;;;;4994628;28;20022;-65
2022/02/11 05:25:34;;;;;;;;;;;10.50;59.50;;;;;;4994925;28;20034;-67
2022/02/11 05:28:00;;;;;;;17.60;10.07;;;10.50;60.00;;;;;;4994922;28;19909;-65
2022/02/11 05:30:25;;;;;;;20.13;9.45;;;10.50;59.70;;;;;;5012601;28;20021;-65
2022/02/11 05:32:51;;;;;;;15.02;9.23;;;10.40;59.80;;;;;;4994139;28;20026;-65
2022/02/11 05:35:17;;;;;;;15.68;8.93;;;10.40;60.00;;;;;;5012090;28;20530;-66
2022/02/11 05:37:43;;;;;;;19.60;9.18;;;10.40;60.10;;;;;;5011697;28;20052;-66
2022/02/11 05:40:09;;;;;;;13.25;9.07;;;10.40;60.10;;;;;;5012191;28;20342;-66
2022/02/11 05:42:35;;;;;;;12.80;8.75;;;10.40;60.00;;;;;;5012254;28;20477;-66
2022/02/11 05:45:01;;;;;;;15.98;8.75;;;10.50;59.90;;;;;;4994802;28;20061;-67
2022/02/11 05:47:27;;;;;;;14.52;8.70;;;10.50;60.00;;;;;;4995046;28;20523;-67
2022/02/11 05:49:52;;;;;;;16.75;8.95;;;10.40;59.90;;;;;;4994224;28;20029;-67
2022/02/11 05:52:18;;;;;;;16.38;9.23;;;10.50;59.90;;;;;;5012384;28;20022;-67
2022/02/11 05:54:43;;;;;;;16.58;7.97;;;10.50;59.80;;;;;;5011975;28;20025;-68
2022/02/11 05:57:09;;;;;;;18.13;8.75;;;10.50;59.70;;;;;;5011921;28;20018;-65
2022/02/11 05:59:35;;;;;;;20.02;9.55;;;10.60;59.70;;;;;;5012173;28;20032;-66
2022/02/11 06:02:00;;;;;;;17.65;9.70;;;10.60;59.50;;;;;;4994088;28;20026;-67
2022/02/11 06:04:26;;;;;;;20.23;9.20;;;10.60;59.50;;;;;;5010726;28;20030;-66
2022/02/11 06:06:52;;;;;;;15.23;9.73;;;10.60;59.50;;;;;;4993297;28;20042;-67
2022/02/11 06:09:22;;;;;;;18.63;9.40;;;10.50;59.50;;;;;;5011320;28;20388;-67
2022/02/11 06:11:48;;;;;;;15.93;8.48;;;10.50;59.70;;;;;;5010912;28;20042;-66
2022/02/11 06:14:14;;;;;;;21.45;8.95;;;10.50;59.90;;;;;;5011728;28;20414;-67
2022/02/11 06:16:40;;;;;;;20.40;8.73;;;10.50;59.90;;;;;;5010771;28;20078;-68
2022/02/11 06:19:06;;;;;;;18.98;9.57;;;10.50;59.80;;;;;;5010787;28;20079;-67
2022/02/11 06:21:31;;;;;;;24.98;12.63;;;10.60;59.80;;;;;;5011077;28;20038;-67
2022/02/11 06:23:57;;;;;;;23.15;11.90;;;10.60;59.70;;;;;;4992984;28;20054;-67
2022/02/11 06:26:23;;;;;;;19.95;10.32;;;10.70;59.50;;;;;;4993346;28;20145;-67
2022/02/11 06:28:50;;;;;;;22.95;9.77;;;10.80;59.40;;;;;;5010853;28;20026;-67
2022/02/11 06:31:16;;;;;;;17.23;8.52;;;10.80;59.20;;;;;;5011110;28;20038;-66
2022/02/11 06:33:42;;;;;;;17.65;8.65;;;10.90;59.00;;;;;;4992843;28;20034;-66
2022/02/11 06:36:08;;;;;;;20.50;8.85;;;10.90;58.90;;;;;;5010362;28;20042;-67
2022/02/11 06:38:34;;;;;;;30.90;10.65;;;11.00;58.70;;;;;;5010994;28;20034;-66
2022/02/11 06:41:00;;;;;;;24.00;9.88;;;11.00;58.40;;;;;;5010013;28;20057;-67
2022/02/11 06:43:27;;;;;;;20.17;10.18;;;11.00;58.40;;;;;;5011119;28;20029;-66
2022/02/11 06:45:53;;;;;;;20.13;10.25;;;11.00;58.60;;;;;;5010387;28;20089;-66
2022/02/11 06:48:23;;;;;;;19.73;8.85;;;10.90;58.70;;;;;;5012315;28;20041;-65
2022/02/11 06:50:50;;;;;;;18.38;9.18;;;10.90;58.80;;;;;;5014139;28;20026;-65
2022/02/11 06:53:16;;;;;;;22.25;10.13;;;10.80;59.00;;;;;;5012801;28;20045;-65
2022/02/11 06:55:42;;;;;;;26.08;10.95;;;10.90;59.10;;;;;;4995207;28;20021;-67
2022/02/11 06:58:08;;;;;;;19.65;10.00;;;10.90;59.10;;;;;;5014195;28;20042;-67
2022/02/11 07:00:34;;;;;;;20.55;10.73;;;10.90;59.10;;;;;;5014845;28;20037;-67
2022/02/11 07:03:01;;;;;;;20.48;9.27;;;10.90;59.20;;;;;;5013046;28;20488;-68
2022/02/11 07:05:27;;;;;;;19.80;9.43;;;10.90;59.10;;;;;;5014367;28;20041;-67
2022/02/11 07:07:54;;;;;;;22.92;10.55;;;11.00;58.90;;;;;;5013255;28;20542;-68
2022/02/11 07:10:20;;;;;;;15.70;9.18;;;11.00;58.80;;;;;;4995906;28;20086;-66
2022/02/11 07:12:49;;;;;;;18.52;9.18;;;11.00;58.70;;;;;;4996297;28;20045;-68
2022/02/11 07:15:14;;;;;;;15.65;8.95;;;11.00;58.70;;;;;;4996851;28;20034;-67
2022/02/11 07:17:40;;;;;;;17.13;9.00;;;11.00;58.70;;;;;;5013917;28;20026;-67
2022/02/11 07:20:07;;;;;;;23.60;9.18;;;11.10;58.60;;;;;;5013389;28;20423;-68
2022/02/11 07:22:37;;;;;;;20.58;9.63;;;11.10;58.60;;;;;;5014055;28;20202;-68
2022/02/11 07:25:07;;;;;;;27.67;9.60;;;11.10;58.50;;;;;;4995812;28;20613;-67
2022/02/11 07:27:34;;;;;;;25.35;10.15;;;11.10;58.50;;;;;;5015194;28;20080;-66
2022/02/11 07:30:00;;;;;;;23.95;11.07;;;11.10;58.50;;;;;;4995232;28;20030;-67
2022/02/11 07:32:27;;;;;;;19.15;9.25;;;11.20;58.50;;;;;;5014281;28;20030;-65
2022/02/11 07:34:54;;;;;;;21.63;9.23;;;11.20;58.60;;;;;;4995384;28;20026;-68
2022/02/11 07:37:20;;;;;;;18.52;8.88;;;11.20;58.30;;;;;;5013867;28;20476;-67
2022/02/11 07:39:47;;;;;;;22.98;8.90;;;11.30;58.30;;;;;;5013704;28;20026;-67
2022/02/11 07:42:13;;;;;;;21.08;8.95;;;11.30;58.30;;;;;;5013815;28;20060;-67
2022/02/11 07:44:40;;;;;;;17.73;8.88;;;11.30;58.30;;;;;;5013948;28;20048;-68
2022/02/11 07:47:05;;;;;;;20.27;9.25;;;11.30;58.40;;;;;;5011657;28;20069;-66
2022/02/11 07:49:34;;;;;;;25.33;11.25;;;11.30;58.70;;;;;;5014297;28;20055;-65
2022/02/11 07:52:00;;;;;;;26.20;10.50;;;11.30;58.80;;;;;;5013113;28;20025;-66
2022/02/11 07:54:27;;;;;;;21.48;11.00;;;11.30;59.30;;;;;;5012860;28;20067;-65
2022/02/11 07:56:53;;;;;;;20.58;10.90;;;11.30;59.20;;;;;;4994641;28;20026;-66
2022/02/11 07:59:19;;;;;;;29.20;12.85;;;11.40;59.30;;;;;;4994390;28;20037;-66
2022/02/11 08:01:45;;;;;;;22.20;11.88;;;11.30;60.00;;;;;;5014063;28;20032;-68
2022/02/11 08:04:11;;;;;;;29.27;11.57;;;11.30;59.90;;;;;;5012568;28;20034;-66
2022/02/11 08:06:37;;;;;;;23.67;10.55;;;11.30;60.10;;;;;;5012484;28;20037;-67
2022/02/11 08:09:03;;;;;;;22.10;11.50;;;11.20;60.40;;;;;;5012021;28;20419;-66
2022/02/11 08:11:29;;;;;;;20.05;10.60;;;11.30;60.70;;;;;;5013891;28;20499;-65
2022/02/11 08:13:54;;;;;;;16.10;9.55;;;11.30;60.70;;;;;;5010119;28;20057;-65
2022/02/11 08:16:20;;;;;;;17.70;10.23;;;11.30;60.60;;;;;;5012058;28;20030;-66
2022/02/11 08:18:46;;;;;;;16.48;10.02;;;11.30;60.50;;;;;;5011804;28;20465;-66
2022/02/11 08:21:12;;;;;;;17.30;10.10;;;11.30;60.60;;;;;;5012030;28;20022;-66
2022/02/11 08:23:37;;;;;;;24.42;9.30;;;11.30;60.60;;;;;;4994367;28;20095;-65
2022/02/11 08:26:04;;;;;;;20.75;10.18;;;11.40;60.50;;;;;;5011020;28;20539;-65
2022/02/11 08:28:31;;;;;;;21.38;8.93;;;11.30;60.40;;;;;;4994060;28;20088;-64
2022/02/11 08:30:57;;;;;;;24.48;9.82;;;11.40;60.40;;;;;;5011462;28;20018;-66
2022/02/11 08:33:24;;;;;;;34.28;10.23;;;11.40;60.40;;;;;;5013042;28;20518;-64
2022/02/11 08:35:55;;;;;;;17.30;9.63;;;11.50;60.20;;;;;;5011455;28;20080;-68
2022/02/11 08:38:23;;;;;;;19.13;9.60;;;11.50;60.20;;;;;;5011257;28;20033;-65
2022/02/11 08:40:49;;;;;;;43.63;25.13;;;11.50;60.40;;;;;;4993148;28;20026;-64
2022/02/11 08:43:16;;;;;;;21.05;10.27;;;11.50;60.50;;;;;;4994354;28;20052;-66
2022/02/11 08:45:42;;;;;;;16.63;9.63;;;11.50;60.80;;;;;;5011376;28;20034;-65
2022/02/11 08:48:10;;;;;;;20.95;8.95;;;11.60;60.90;;;;;;5012626;28;20033;-66
2022/02/11 08:50:37;;;;;;;22.98;11.48;;;11.60;61.10;;;;;;5012334;28;20097;-65
2022/02/11 08:53:06;;;;;;;23.40;10.50;;;11.60;61.20;;;;;;5010829;28;20030;-64
2022/02/11 08:55:32;;;;;;;22.50;10.77;;;11.60;61.40;;;;;;4995668;28;20099;-63
2022/02/11 08:58:01;;;;;;;21.15;10.45;;;11.60;61.90;;;;;;5011237;28;20030;-63
2022/02/11 09:00:28;;;;;;;28.77;13.80;;;11.60;62.40;;;;;;4994136;28;20428;-66
2022/02/11 09:02:58;;;;;;;25.75;11.45;;;11.60;63.40;;;;;;4976805;28;20133;-65
2022/02/11 09:05:27;;;;;;;25.55;11.80;;;11.70;62.50;;;;;;5012124;28;20029;-63
2022/02/11 09:07:57;;;;;;;20.70;9.77;;;11.70;62.50;;;;;;5011842;28;20044;-65
2022/02/11 09:10:26;;;;;;;25.15;10.77;;;11.70;62.50;;;;;;5011214;28;20484;-68
2022/02/11 09:12:53;;;;;;;18.88;9.68;;;11.80;62.40;;;;;;5010076;28;20052;-63
2022/02/11 09:15:21;;;;;;;17.30;9.82;;;11.80;62.40;;;;;;5010951;28;20060;-65
2022/02/11 09:17:49;;;;;;;16.42;9.40;;;11.80;62.20;;;;;;5012381;28;20037;-63
2022/02/11 09:20:15;;;;;;;15.43;8.40;;;11.70;61.90;;;;;;5010417;28;20130;-65
2022/02/11 09:23:20;;;;;;;16.40;8.35;;;11.80;62.00;;;;;;5011386;28;20049;-64
2022/02/11 09:25:46;;;;;;;13.93;8.50;;;11.80;61.60;;;;;;5010993;28;20092;-63
2022/02/11 09:28:12;;;;;;;16.23;9.23;;;11.80;61.80;;;;;;5010396;28;20085;-65
2022/02/11 09:30:38;;;;;;;13.65;7.28;;;11.90;62.30;;;;;;5011392;28;20029;-64
2022/02/11 09:33:05;;;;;;;13.05;7.40;;;11.80;62.70;;;;;;5010589;28;20468;-64
2022/02/11 09:35:31;;;;;;;13.88;7.20;;;11.70;63.20;;;;;;5010950;28;20053;-64
2022/02/11 09:37:58;;;;;;;13.02;5.35;;;11.80;63.60;;;;;;5009907;28;20524;-54
2022/02/11 09:40:24;;;;;;;9.95;4.68;;;11.70;64.70;;;;;;5009547;28;20026;-64
2022/02/11 09:42:55;;;;;;;7.43;4.10;;;11.60;65.80;;;;;;5011861;28;20029;-62
2022/02/11 09:45:23;;;;;;;10.63;3.88;;;11.40;66.50;;;;;;5010781;28;20129;-66
2022/02/11 09:47:52;;;;;;;9.50;3.70;;;11.30;67.20;;;;;;5010305;28;20491;-61
2022/02/11 09:50:22;;;;;;;7.35;3.72;;;11.30;67.80;;;;;;5009219;28;20038;-64
2022/02/11 09:52:53;;;;;;;11.85;4.28;;;11.20;68.70;;;;;;4992403;28;20033;-69
2022/02/11 09:55:34;;;;;;;8.00;4.35;;;11.20;69.00;;;;;;4994542;28;20034;-61
2022/02/11 09:58:00;;;;;;;9.98;4.18;;;11.10;69.00;;;;;;5009983;28;20084;-62
2022/02/11 10:00:27;;;;;;;8.88;3.67;;;11.20;68.80;;;;;;5010042;28;20034;-62
2022/02/11 10:03:00;;;;;;;10.55;4.43;;;11.20;68.70;;;;;;4991553;28;20029;-57
2022/02/11 10:05:35;;;;;;;8.35;3.28;;;11.20;68.70;;;;;;4992297;28;20048;-60
2022/02/11 10:08:03;;;;;;;6.25;3.80;;;11.20;68.30;;;;;;5011541;28;20030;-62
2022/02/11 10:10:40;;;;;;;7.65;4.03;;;11.20;68.50;;;;;;4991798;28;20041;-65
2022/02/11 10:13:08;;;;;;;5.82;3.60;;;11.40;68.30;;;;;;4992481;28;20113;-62
2022/02/11 10:15:37;;;;;;;6.82;3.97;;;11.40;67.70;;;;;;4993206;28;20100;-63
2022/02/11 10:18:04;;;;;;;6.20;3.30;;;11.40;67.80;;;;;;4992480;28;20037;-66
2022/02/11 10:20:51;;;;;;;8.27;3.58;;;11.40;67.60;;;;;;5010060;28;20030;-67
2022/02/11 10:23:17;;;;;;;6.53;3.35;;;11.50;67.40;;;;;;4994069;28;20076;-66
2022/02/11 10:26:07;;;;;;;6.60;3.42;;;11.30;67.60;;;;;;5013585;28;20034;-68
2022/02/11 10:28:35;;;;;;;8.95;4.30;;;11.20;68.20;;;;;;4996891;28;20334;-65
2022/02/11 10:31:25;;;;;;;5.53;3.08;;;11.10;68.50;;;;;;4996099;28;20030;-66
2022/02/11 10:34:05;;;;;;;6.25;3.75;;;11.10;68.70;;;;;;4995716;28;20026;-70
2022/02/11 10:36:41;;;;;;;8.25;3.80;;;11.10;68.90;;;;;;4997907;28;20152;-66
2022/02/11 10:39:09;;;;;;;6.50;2.90;;;11.10;69.30;;;;;;5013158;28;20030;-67
2022/02/11 10:41:45;;;;;;;7.47;2.70;;;11.00;69.90;;;;;;5013890;28;20026;-66
2022/02/11 10:44:16;;;;;;;9.82;3.05;;;10.90;70.00;;;;;;5013616;28;20153;-66
2022/02/11 10:46:47;;;;;;;9.50;4.35;;;10.90;70.50;;;;;;5013357;28;20034;-67
2022/02/11 10:49:15;;;;;;;6.93;3.15;;;10.80;70.90;;;;;;5013958;28;20036;-67
2022/02/11 10:51:49;;;;;;;5.68;2.42;;;10.80;71.20;;;;;;4995822;28;20029;-68
2022/02/11 10:54:21;;;;;;;;;;;10.80;70.50;;;;;;5013656;28;20037;-70
2022/02/11 10:56:50;;;;;;;5.60;2.78;;;10.80;70.40;;;;;;4996113;28;19920;-70
2022/02/11 10:59:24;;;;;;;4.38;2.60;;;10.80;70.20;;;;;;4995232;28;20026;-67
2022/02/11 11:01:51;;;;;;;4.47;2.55;;;10.90;69.40;;;;;;5014651;28;20476;-68
2022/02/11 11:04:17;;;;;;;4.93;2.60;;;10.90;69.20;;;;;;4994341;28;20070;-67
2022/02/11 11:06:46;;;;;;;9.63;2.45;;;11.10;68.70;;;;;;4994560;28;20480;-69
2022/02/11 11:09:13;;;;;;;6.97;3.00;;;11.20;68.20;;;;;;4993751;28;20030;-69
2022/02/11 11:11:39;;;;;;;5.95;2.70;;;11.40;67.50;;;;;;5013457;28;20034;-70
2022/02/11 11:14:06;;;;;;;6.25;2.63;;;11.50;67.20;;;;;;5013632;28;20465;-69
2022/02/11 11:16:34;;;;;;;6.43;2.10;;;11.60;66.30;;;;;;5013261;28;20051;-68
2022/02/11 11:19:00;;;;;;;4.90;2.20;;;11.70;65.20;;;;;;5012811;28;20021;-68
2022/02/11 11:21:28;;;;;;;3.13;2.15;;;11.60;65.20;;;;;;5012479;28;20037;-67
2022/02/11 11:24:00;;;;;;;2.92;1.92;;;11.60;65.00;;;;;;5013735;28;20050;-64
2022/02/11 11:26:40;;;;;;;4.25;1.90;;;11.60;64.60;;;;;;4994900;28;20114;-66
2022/02/11 11:29:11;;;;;;;4.80;3.05;;;11.60;65.10;;;;;;5012512;28;20080;-64
2022/02/11 11:31:36;;;;;;;3.83;1.77;;;11.50;65.30;;;;;;5014025;28;20030;-66
2022/02/11 11:34:14;;;;;;;2.97;1.80;;;11.60;64.30;;;;;;5011935;28;20036;-66
2022/02/11 11:36:59;;;;;;;4.22;1.95;;;11.50;64.00;;;;;;5013626;28;20052;-62
2022/02/11 11:39:25;;;;;;;4.72;1.75;;;11.50;63.90;;;;;;5013206;28;20030;-62
2022/02/11 11:42:05;;;;;;;5.15;2.00;;;11.40;63.80;;;;;;5013294;28;20026;-63
2022/02/11 11:45:00;;;;;;;5.47;1.90;;;11.40;64.30;;;;;;5013639;28;20060;-63
2022/02/11 11:47:29;;;;;;;3.03;1.98;;;11.40;64.30;;;;;;5013589;28;20042;-64
2022/02/11 11:49:56;;;;;;;3.70;2.22;;;11.40;64.00;;;;;;4995641;28;20028;-63
2022/02/11 11:52:22;;;;;;;3.53;2.00;;;11.40;64.00;;;;;;5013758;28;20060;-63
2022/02/11 11:54:48;;;;;;;4.65;2.20;;;11.30;63.90;;;;;;4996177;28;20058;-63
2022/02/11 11:57:17;;;;;;;3.70;2.08;;;11.30;63.60;;;;;;4995700;28;20275;-64
2022/02/11 11:59:56;;;;;;;3.00;2.17;;;11.20;63.20;;;;;;5014335;28;20018;-62
2022/02/11 12:02:27;;;;;;;4.55;2.40;;;11.10;63.10;;;;;;5013253;28;20022;-63
2022/02/11 12:04:58;;;;;;;4.25;2.35;;;11.10;63.00;;;;;;4995453;28;20065;-62
2022/02/11 12:07:26;;;;;;;3.85;2.90;;;11.20;62.30;;;;;;4995587;28;20064;-62
2022/02/11 12:09:54;;;;;;;4.95;2.60;;;11.10;62.50;;;;;;4996290;28;20036;-62
2022/02/11 12:12:22;;;;;;;3.95;2.30;;;11.20;62.30;;;;;;5013448;28;20171;-61
2022/02/11 12:14:51;;;;;;;4.53;2.42;;;11.20;62.00;;;;;;4996975;28;20033;-61
2022/02/11 12:17:19;;;;;;;5.25;2.47;;;11.10;61.50;;;;;;4995489;28;20058;-62
2022/02/11 12:19:46;;;;;;;3.40;2.35;;;11.10;61.70;;;;;;4995711;28;20032;-63
2022/02/11 12:22:16;;;;;;;3.13;2.00;;;11.00;62.00;;;;;;5011973;28;20033;-65
2022/02/11 12:27:36;;;;;;;2.65;1.80;;;11.00;61.70;;;;;;5012902;28;20262;-63
2022/02/11 12:30:16;;;;;;;2.50;2.03;;;10.90;62.00;;;;;;5012259;28;20017;-63
2022/02/11 12:32:44;;;;;;;4.95;2.20;;;10.90;61.60;;;;;;4995150;28;20112;-65
2022/02/11 12:35:15;;;;;;;3.60;2.13;;;10.90;62.00;;;;;;4994741;28;20448;-64
2022/02/11 12:37:45;;;;;;;4.05;2.10;;;10.80;61.90;;;;;;4995207;28;20072;-63
2022/02/11 12:40:19;;;;;;;5.00;2.60;;;10.90;62.00;;;;;;4994494;28;20033;-64
2022/02/11 12:42:47;;;;;;;5.90;2.20;;;10.90;62.20;;;;;;4995211;28;20025;-64
2022/02/11 12:45:24;;;;;;;3.08;2.10;;;10.90;62.00;;;;;;5011298;28;20030;-63
2022/02/11 12:47:53;;;;;;;5.88;3.60;;;11.00;61.90;;;;;;4995372;28;20431;-63
2022/02/11 12:50:20;;;;;;;4.25;1.85;;;11.00;61.40;;;;;;4994383;28;20069;-60
2022/02/11 12:52:50;;;;;;;2.90;2.20;;;11.00;61.00;;;;;;5011767;28;20037;-61
2022/02/11 12:55:21;;;;;;;11.07;2.45;;;11.00;60.80;;;;;;4994719;28;20057;-64
2022/02/11 12:58:01;;;;;;;5.85;2.60;;;11.10;60.40;;;;;;5012596;28;20080;-63
2022/02/11 13:00:30;;;;;;;3.50;2.00;;;11.10;60.30;;;;;;4993388;28;20069;-62
2022/02/11 13:03:02;;;;;;;6.10;2.22;;;11.10;60.20;;;;;;4994735;28;20082;-62
2022/02/11 13:05:44;;;;;;;7.43;2.75;;;11.00;60.40;;;;;;5012329;28;20033;-64
2022/02/11 13:08:28;;;;;;;17.30;2.42;;;11.00;60.10;;;;;;5011785;28;20026;-66
2022/02/11 13:11:06;;;;;;;3.42;2.10;;;11.00;59.50;;;;;;4994535;28;20022;-62
2022/02/11 13:13:40;;;;;;;6.88;2.20;;;10.90;59.80;;;;;;5012125;28;20062;-66
2022/02/11 13:16:11;;;;;;;3.90;2.13;;;11.00;60.10;;;;;;4993724;28;20065;-64
2022/02/11 13:18:40;;;;;;;5.40;2.50;;;10.80;61.20;;;;;;4994897;28;20389;-63
2022/02/11 13:21:11;;;;;;;9.18;1.92;;;10.70;62.10;;;;;;4993430;28;20058;-65
2022/02/11 13:23:39;;;;;;;4.93;2.78;;;10.70;61.50;;;;;;4984685;28;20055;-65
2022/02/11 13:26:10;;;;;;;5.97;1.30;;;10.80;61.10;;;;;;4970937;28;20047;-63
2022/02/11 13:28:44;;;;;;;3.42;1.55;;;10.70;59.80;;;;;;4972789;28;20053;-63
2022/02/11 13:31:10;;;;;;;6.82;2.20;;;10.40;59.10;;;;;;4970871;28;20031;-66
2022/02/11 13:33:37;;;;;;;2.70;1.55;;;10.40;59.30;;;;;;4972631;28;20031;-59
2022/02/11 13:36:08;;;;;;;7.43;1.50;;;10.40;58.90;;;;;;4969581;28;20039;-63
2022/02/11 13:38:38;;;;;;;2.00;1.00;;;10.30;58.20;;;;;;4972491;28;20033;-63
2022/02/11 13:41:08;;;;;;;3.25;1.30;;;10.30;57.80;;;;;;4972409;28;20023;-63
2022/02/11 13:43:47;;;;;;;2.38;1.25;;;10.30;57.60;;;;;;4971544;28;20052;-65
2022/02/11 13:46:41;;;;;;;3.58;1.60;;;10.30;57.70;;;;;;4970867;28;20050;-64
2022/02/11 13:49:12;;;;;;;5.00;2.28;;;10.30;57.60;;;;;;4971091;28;20034;-64
2022/02/11 13:51:40;;;;;;;3.38;1.45;;;10.30;57.90;;;;;;4971913;28;20552;-62
2022/02/11 13:54:17;;;;;;;1.77;1.20;;;10.20;57.80;;;;;;4971946;28;20462;-63
2022/02/11 13:56:48;;;;;;;3.03;1.33;;;10.20;57.50;;;;;;4972636;28;20130;-64
2022/02/11 13:59:27;;;;;;;4.10;1.25;;;10.10;56.90;;;;;;4970964;28;20081;-64
2022/02/11 14:02:04;;;;;;;3.25;1.63;;;10.20;57.10;;;;;;4971203;28;20031;-65
2022/02/11 14:04:33;;;;;;;1.73;1.20;;;10.10;58.40;;;;;;4952257;28;20023;-64
2022/02/11 14:07:00;;;;;;;8.90;4.05;;;10.20;58.40;;;;;;4966277;28;20202;-69
2022/02/11 14:09:48;;;;;;;3.55;1.60;;;10.20;59.20;;;;;;4968010;28;20026;-63
2022/02/11 14:12:14;;;;;;;1.63;1.27;;;10.30;58.40;;;;;;4965983;28;20034;-65
2022/02/11 14:14:59;;;;;;;2.78;1.40;;;10.30;57.30;;;;;;4968670;28;20053;-64
2022/02/11 14:17:29;;;;;;;2.88;1.65;;;10.30;57.10;;;;;;4954306;28;20588;-63
2022/02/11 14:19:55;;;;;;;7.07;1.77;;;10.20;56.30;;;;;;4970729;28;20018;-63
2022/02/11 14:22:21;;;;;;;2.50;1.42;;;10.20;55.70;;;;;;4969679;28;20141;-62
2022/02/11 14:24:47;;;;;;;5.15;3.13;;;10.30;56.30;;;;;;4968950;28;20522;-62
2022/02/11 14:27:13;;;;;;;3.45;1.70;;;10.40;56.50;;;;;;4968928;28;20147;-60
2022/02/11 14:29:39;;;;;;;4.07;1.90;;;10.50;56.60;;;;;;4971618;28;20122;-67
2022/02/11 14:32:06;;;;;;;8.65;4.10;;;10.50;55.10;;;;;;4968493;28;20405;-63
2022/02/11 14:34:33;;;;;;;4.63;1.70;;;10.50;55.20;;;;;;4968725;28;20089;-65
2022/02/11 14:37:02;;;;;;;4.00;1.50;;;10.60;54.80;;;;;;4969107;28;20122;-66
2022/02/11 14:39:28;;;;;;;5.90;2.33;;;10.70;54.80;;;;;;4969633;28;20029;-63
2022/02/11 14:41:57;;;;;;;3.13;1.75;;;10.80;54.80;;;;;;4969593;28;20035;-64
2022/02/11 14:44:24;;;;;;;3.85;1.40;;;10.80;54.00;;;;;;4968414;28;20042;-63
2022/02/11 14:46:52;;;;;;;2.42;1.38;;;10.80;53.90;;;;;;4969731;28;20050;-65
2022/02/11 14:49:19;;;;;;;2.50;1.50;;;10.80;53.90;;;;;;4968035;28;20604;-65
2022/02/11 14:51:46;;;;;;;2.70;1.50;;;10.70;54.00;;;;;;4970835;28;20060;-63
2022/02/11 14:54:12;;;;;;;3.53;1.50;;;10.70;53.70;;;;;;4967620;28;20481;-64
2022/02/11 14:56:39;;;;;;;2.25;1.70;;;10.70;53.80;;;;;;4970091;28;20070;-63
2022/02/11 14:59:06;;;;;;;2.83;1.85;;;10.70;53.80;;;;;;4967639;28;20497;-63
2022/02/11 15:01:32;;;;;;;3.72;1.90;;;10.70;53.80;;;;;;4969379;28;20478;-64
2022/02/11 15:03:58;;;;;;;3.58;1.75;;;10.70;53.80;;;;;;4970327;28;20113;-62
2022/02/11 15:06:26;;;;;;;3.58;1.50;;;10.70;53.80;;;;;;4968898;28;20118;-62
2022/02/11 15:08:52;;;;;;;2.28;1.38;;;10.70;53.50;;;;;;4971065;28;20039;-63
2022/02/11 15:11:20;;;;;;;5.57;1.85;;;10.70;53.20;;;;;;4973797;28;20209;-62
2022/02/11 15:13:46;;;;;;;3.78;1.80;;;10.60;53.50;;;;;;4973499;28;20035;-64
2022/02/11 15:16:13;;;;;;;3.47;1.75;;;10.60;53.20;;;;;;4973139;28;20027;-62
2022/02/11 15:18:39;;;;;;;9.38;2.35;;;10.60;53.20;;;;;;4973257;28;20031;-63
2022/02/11 15:21:06;;;;;;;3.92;1.90;;;10.60;53.40;;;;;;4973110;28;20038;-63
2022/02/11 15:23:37;;;;;;;3.55;1.88;;;10.50;51.70;;;;;;4973243;28;20051;-69
2022/02/11 15:26:05;;;;;;;4.00;1.83;;;10.30;50.20;;;;;;4972799;28;20054;-65
2022/02/11 15:28:51;;;;;;;3.92;1.70;;;10.20;50.60;;;;;;4971800;28;20217;-63
2022/02/11 15:31:19;;;;;;;4.25;1.80;;;10.10;50.60;;;;;;4970764;28;20089;-64
2022/02/11 15:33:46;;;;;;;4.22;2.08;;;10.10;50.50;;;;;;4973971;28;20038;-66
2022/02/11 15:36:17;;;;;;;3.00;1.58;;;10.10;50.80;;;;;;4973137;28;20033;-64
2022/02/11 15:38:43;;;;;;;4.25;1.83;;;10.10;50.00;;;;;;4973069;28;20067;-65
2022/02/11 15:41:14;;;;;;;7.82;1.83;;;10.10;50.00;;;;;;4972303;28;20090;-64
2022/02/11 15:43:40;;;;;;;10.02;2.13;;;10.10;49.10;;;;;;4974474;28;20323;-64
2022/02/11 15:46:10;;;;;;;4.40;1.85;;;10.00;49.00;;;;;;4973792;28;20043;-64
2022/02/11 15:48:41;;;;;;;3.53;1.70;;;10.00;49.10;;;;;;4972525;28;20047;-60
2022/02/11 15:51:10;;;;;;;2.90;1.73;;;10.00;49.10;;;;;;4971933;28;20505;-62
2022/02/11 15:53:36;;;;;;;4.20;2.20;;;10.00;48.80;;;;;;4974418;28;20082;-64
2022/02/11 15:56:08;;;;;;;5.13;1.70;;;10.10;48.70;;;;;;4973491;28;20367;-65
2022/02/11 15:58:34;;;;;;;3.78;1.73;;;10.10;48.30;;;;;;4972037;28;20034;-61
2022/02/11 16:01:03;;;;;;;4.00;1.52;;;10.10;47.40;;;;;;4972312;28;20031;-61
2022/02/11 16:03:29;;;;;;;4.30;1.88;;;10.00;47.40;;;;;;4974037;28;20027;-65
2022/02/11 16:05:56;;;;;;;3.65;1.70;;;10.00;47.70;;;;;;4972181;28;20074;-64
2022/02/11 16:08:21;;;;;;;5.05;1.80;;;9.90;47.30;;;;;;4972723;28;20030;-63
2022/02/11 16:10:47;;;;;;;3.38;1.52;;;9.90;47.80;;;;;;4971927;28;20543;-62
2022/02/11 16:13:13;;;;;;;5.07;1.75;;;9.90;48.00;;;;;;4972762;28;20023;-64
2022/02/11 16:15:41;;;;;;;4.28;1.80;;;9.80;47.90;;;;;;4972063;28;20118;-63
2022/02/11 16:18:15;;;;;;;5.25;1.98;;;9.70;48.20;;;;;;4972158;28;20023;-64
2022/02/11 16:20:45;;;;;;;3.72;1.80;;;9.70;48.20;;;;;;4956427;28;20378;-63
2022/02/11 16:23:14;;;;;;;4.07;1.20;;;9.60;47.60;;;;;;4976195;28;20093;-64
2022/02/11 16:25:41;;;;;;;5.97;1.80;;;9.60;47.80;;;;;;5011924;28;20061;-63
2022/02/11 16:28:10;;;;;;;5.32;1.90;;;9.50;47.80;;;;;;5007247;28;20033;-63
2022/02/11 16:30:37;;;;;;;5.85;2.17;;;9.60;47.90;;;;;;4994241;28;20472;-62
2022/02/11 16:33:05;;;;;;;4.60;1.83;;;9.50;47.50;;;;;;4993977;28;20025;-64
2022/02/11 16:35:33;;;;;;;3.95;1.80;;;9.60;47.80;;;;;;5011703;28;20072;-63
2022/02/11 16:37:59;;;;;;;4.00;2.15;;;9.50;47.60;;;;;;5011134;28;20030;-61
2022/02/11 16:40:24;;;;;;;7.78;3.55;;;9.50;47.50;;;;;;4993370;28;20113;-62
2022/02/11 16:42:50;;;;;;;10.05;4.78;;;9.50;47.50;;;;;;4992426;28;20137;-61
2022/02/11 16:45:16;;;;;;;4.13;1.48;;;9.50;47.30;;;;;;5009252;28;20026;-64
2022/02/11 16:47:42;;;;;;;3.88;1.75;;;9.40;47.20;;;;;;4991729;28;20026;-64
2022/02/11 16:50:10;;;;;;;4.55;1.50;;;9.40;47.40;;;;;;4993485;28;20033;-64
2022/02/11 16:52:36;;;;;;;6.53;1.55;;;9.40;47.40;;;;;;5011182;28;20332;-62
2022/02/11 16:55:08;;;;;;;3.97;2.08;;;9.30;48.20;;;;;;4993446;28;20103;-63